Time;durP1;ratioP1;P1;durP2;ratioP2;P2;SDS_P1;SDS_P2;PMS_P1;PMS_P2;Temp;Humidity;BMP_temperature;BMP_pressure;BME280_temperature;BME280_humidity;BME280_pressure;Samples;Min_cycle;Max_cycle;Signal;HPM_P1;HPM_P2
2022/10/03 00:02:24;;;;;;;37.05;4.78;;;;;;;;;;4915924;29;20394;-61
2022/10/03 00:04:59;;;;;;;29.15;4.82;;;;;;;;;;4923620;29;20470;-60
2022/10/03 00:07:26;;;;;;;35.08;4.97;;;;;;;;;;4915330;29;20035;-60
2022/10/03 00:09:55;;;;;;;43.65;5.97;;;;;;;;;;4924365;29;20027;-63
2022/10/03 00:12:41;;;;;;;33.30;6.22;;;;;;;;;;4921905;29;20035;-62
2022/10/03 00:15:20;;;;;;;29.38;5.30;;;;;;;;;;4928730;29;20047;-62
2022/10/03 00:18:05;;;;;;;29.40;4.75;;;;;;;;;;4915524;29;20502;-62
2022/10/03 00:20:32;;;;;;;31.73;5.65;;;;;;;;;;4928970;29;20032;-60
2022/10/03 00:23:01;;;;;;;30.65;4.70;;;;;;;;;;4924803;29;20046;-62
2022/10/03 00:25:34;;;;;;;34.10;5.00;;;;;;;;;;4923470;29;20028;-61
2022/10/03 00:28:10;;;;;;;33.60;5.00;;;;;;;;;;4915730;29;20024;-62
2022/10/03 00:30:49;;;;;;;31.73;5.25;;;;;;;;;;4914823;29;20025;-62
2022/10/03 00:33:39;;;;;;;30.30;5.43;;;;;;;;;;4914861;29;20052;-63
2022/10/03 00:36:21;;;;;;;36.10;5.18;;;;;;;;;;4916066;29;20032;-61
2022/10/03 00:39:12;;;;;;;35.20;5.95;;;;;;;;;;4924980;29;20036;-61
2022/10/03 00:41:45;;;;;;;35.90;6.00;;;;;;;;;;4930457;29;20394;-63
2022/10/03 00:44:31;;;;;;;38.35;6.05;;;;;;;;;;4923919;29;20035;-61
2022/10/03 00:47:01;;;;;;;27.27;5.40;;;;;;;;;;4920255;29;20559;-63
2022/10/03 00:49:46;;;;;;;53.35;7.20;;;;;;;;;;4917748;29;20066;-63
2022/10/03 00:52:38;;;;;;;47.13;6.63;;;;;;;;;;4924464;29;20707;-61
2022/10/03 00:55:08;;;;;;;39.85;6.18;;;;;;;;;;4920685;29;20024;-60
2022/10/03 00:57:41;;;;;;;38.75;6.05;;;;;;;;;;4934334;29;20028;-61
2022/10/03 01:00:23;;;;;;;33.95;5.28;;;;;;;;;;4927905;29;20036;-61
2022/10/03 01:03:09;;;;;;;34.78;5.45;;;;;;;;;;4932012;29;20063;-63
2022/10/03 01:05:45;;;;;;;29.52;4.35;;;;;;;;;;4933507;29;20047;-62
2022/10/03 01:08:17;;;;;;;43.80;5.88;;;;;;;;;;4915363;29;20036;-62
2022/10/03 01:11:04;;;;;;;38.40;6.45;;;;;;;;;;4916173;29;20127;-61
2022/10/03 01:13:41;;;;;;;62.75;7.32;;;;;;;;;;4934062;29;20078;-61
2022/10/03 01:16:09;;;;;;;49.92;6.88;;;;;;;;;;4937938;29;20123;-62
2022/10/03 01:18:45;;;;;;;38.05;6.05;;;;;;;;;;4937833;29;20505;-63
2022/10/03 01:21:15;;;;;;;36.85;5.75;;;;;;;;;;4926855;29;20035;-62
2022/10/03 01:24:04;;;;;;;30.75;6.05;;;;;;;;;;4925041;29;20091;-61
2022/10/03 01:26:49;;;;;;;46.00;6.20;;;;;;;;;;4918330;29;20394;-62
2022/10/03 01:32:40;;;;;;;34.30;5.93;;;;;;;;;;4923474;29;20492;-62
2022/10/03 01:35:11;;;;;;;30.55;5.03;;;;;;;;;;4922993;29;20386;-62
2022/10/03 01:37:50;;;;;;;22.40;4.22;;;;;;;;;;4923728;29;20028;-62
2022/10/03 01:40:21;;;;;;;23.60;4.65;;;;;;;;;;4923688;29;20035;-62
2022/10/03 01:43:14;;;;;;;29.90;4.38;;;;;;;;;;4929081;29;20031;-61
2022/10/03 01:45:42;;;;;;;22.75;4.20;;;;;;;;;;4921763;29;20683;-61
2022/10/03 01:48:14;;;;;;;29.13;5.20;;;;;;;;;;4921509;29;20179;-61
2022/10/03 01:50:53;;;;;;;29.52;5.18;;;;;;;;;;4923758;29;20391;-62
2022/10/03 01:53:20;;;;;;;24.85;4.25;;;;;;;;;;4934482;29;20375;-60
2022/10/03 01:56:01;;;;;;;26.23;4.32;;;;;;;;;;4924861;29;20036;-59
2022/10/03 01:58:37;;;;;;;21.52;4.82;;;;;;;;;;4920216;29;20043;-59
2022/10/03 02:01:10;;;;;;;39.25;4.82;;;;;;;;;;4925577;29;20032;-60
2022/10/03 02:04:03;;;;;;;23.00;4.15;;;;;;;;;;4929194;29;20032;-61
2022/10/03 02:06:39;;;;;;;18.67;3.85;;;;;;;;;;4928630;29;20035;-61
2022/10/03 02:09:24;;;;;;;22.45;4.13;;;;;;;;;;4928673;29;20031;-61
2022/10/03 02:11:51;;;;;;;22.67;4.07;;;;;;;;;;4928446;29;20031;-61
2022/10/03 02:14:23;;;;;;;24.67;3.70;;;;;;;;;;4925762;29;20382;-62
2022/10/03 02:17:07;;;;;;;15.23;3.88;;;;;;;;;;4928235;29;20024;-59
2022/10/03 02:19:34;;;;;;;20.70;3.92;;;;;;;;;;4928369;29;20032;-60
2022/10/03 02:22:01;;;;;;;18.85;3.65;;;;;;;;;;4925430;29;20438;-61
2022/10/03 02:24:38;;;;;;;18.15;3.78;;;;;;;;;;4918198;29;20032;-61
2022/10/03 02:27:05;;;;;;;24.65;3.83;;;;;;;;;;4917161;29;20483;-61
2022/10/03 02:29:50;;;;;;;17.35;3.75;;;;;;;;;;4918381;29;20032;-61
2022/10/03 02:32:46;;;;;;;18.20;3.85;;;;;;;;;;4918118;29;20134;-61
2022/10/03 02:35:26;;;;;;;24.75;3.53;;;;;;;;;;4918116;29;20107;-61
2022/10/03 02:38:11;;;;;;;22.00;3.72;;;;;;;;;;4918121;29;20225;-61
2022/10/03 02:40:56;;;;;;;17.08;2.75;;;;;;;;;;4918068;29;20558;-61
2022/10/03 02:43:42;;;;;;;24.52;3.55;;;;;;;;;;4917835;29;20028;-61
2022/10/03 02:46:21;;;;;;;17.63;3.40;;;;;;;;;;4917780;29;20510;-61
2022/10/03 02:49:07;;;;;;;15.35;3.35;;;;;;;;;;4917935;29;20051;-61
2022/10/03 02:51:43;;;;;;;12.27;3.03;;;;;;;;;;4917906;29;20431;-59
2022/10/03 02:54:28;;;;;;;19.17;3.38;;;;;;;;;;4917749;29;20060;-59
2022/10/03 02:56:58;;;;;;;18.48;3.03;;;;;;;;;;4917749;29;20036;-59
2022/10/03 02:59:43;;;;;;;13.48;2.75;;;;;;;;;;4917565;29;20031;-58
2022/10/03 03:02:32;;;;;;;16.10;3.00;;;;;;;;;;4917719;29;20039;-58
2022/10/03 03:04:59;;;;;;;12.95;2.70;;;;;;;;;;4917543;29;20048;-59
2022/10/03 03:07:37;;;;;;;10.15;2.72;;;;;;;;;;4917646;29;20109;-59
2022/10/03 03:10:22;;;;;;;10.88;2.92;;;;;;;;;;4917571;29;20040;-59
2022/10/03 03:13:12;;;;;;;17.25;2.40;;;;;;;;;;4917589;29;20103;-58
2022/10/03 03:15:38;;;;;;;13.80;2.22;;;;;;;;;;4914789;29;20040;-58
2022/10/03 03:18:23;;;;;;;10.98;2.65;;;;;;;;;;4917394;29;20032;-59
2022/10/03 03:20:51;;;;;;;10.63;2.42;;;;;;;;;;4917432;29;20479;-59
2022/10/03 03:23:18;;;;;;;8.48;2.30;;;;;;;;;;4917336;29;20550;-59
2022/10/03 03:26:12;;;;;;;7.88;2.60;;;;;;;;;;4917237;29;20028;-61
2022/10/03 03:29:11;;;;;;;7.32;2.05;;;;;;;;;;4917392;29;20059;-61
2022/10/03 03:31:50;;;;;;;14.43;2.88;;;;;;;;;;4905704;29;20051;-61
2022/10/03 03:34:48;;;;;;;10.15;2.80;;;;;;;;;;4917113;29;20036;-62
2022/10/03 03:37:30;;;;;;;6.40;2.35;;;;;;;;;;4898497;29;20101;-61
2022/10/03 03:40:07;;;;;;;7.35;2.20;;;;;;;;;;4917116;29;20140;-61
2022/10/03 03:42:56;;;;;;;8.18;2.33;;;;;;;;;;4917081;29;20119;-61
2022/10/03 03:45:41;;;;;;;8.45;2.40;;;;;;;;;;4907278;29;20052;-61
2022/10/03 03:48:26;;;;;;;5.07;1.85;;;;;;;;;;4917075;29;20115;-61
2022/10/03 03:50:55;;;;;;;8.57;2.08;;;;;;;;;;4916908;29;20054;-61
2022/10/03 03:53:34;;;;;;;17.27;2.42;;;;;;;;;;4917265;29;20434;-61
2022/10/03 03:56:14;;;;;;;8.57;1.80;;;;;;;;;;4916795;29;20024;-61
2022/10/03 03:58:50;;;;;;;8.45;1.70;;;;;;;;;;4916808;29;20092;-61
2022/10/03 04:01:31;;;;;;;9.13;2.28;;;;;;;;;;4916751;29;20371;-59
2022/10/03 04:04:17;;;;;;;7.65;2.00;;;;;;;;;;4916861;29;20047;-59
2022/10/03 04:06:53;;;;;;;6.22;1.60;;;;;;;;;;4916746;29;20464;-60
2022/10/03 04:09:38;;;;;;;6.07;1.58;;;;;;;;;;4916682;29;20509;-60
2022/10/03 04:12:09;;;;;;;7.80;1.95;;;;;;;;;;4916662;29;20028;-59
2022/10/03 04:14:54;;;;;;;8.02;1.83;;;;;;;;;;4916507;29;20056;-60
2022/10/03 04:20:28;;;;;;;9.32;2.15;;;;;;;;;;4916829;29;20047;-61
2022/10/03 04:23:01;;;;;;;9.38;1.80;;;;;;;;;;4916508;29;20036;-61
2022/10/03 04:25:36;;;;;;;5.80;1.70;;;;;;;;;;4916408;29;20415;-61
2022/10/03 04:28:03;;;;;;;9.05;2.08;;;;;;;;;;4916408;29;20039;-61
2022/10/03 04:30:50;;;;;;;9.18;1.90;;;;;;;;;;4916484;29;20029;-61
2022/10/03 04:33:24;;;;;;;6.43;1.55;;;;;;;;;;4916152;29;20044;-61
2022/10/03 04:36:09;;;;;;;10.10;1.73;;;;;;;;;;4916283;29;20036;-61
2022/10/03 04:38:55;;;;;;;6.60;1.70;;;;;;;;;;4916329;29;20048;-61
2022/10/03 04:41:41;;;;;;;6.38;1.55;;;;;;;;;;4916401;29;20455;-61
2022/10/03 04:44:26;;;;;;;8.50;1.55;;;;;;;;;;4916245;29;20446;-62
2022/10/03 04:46:53;;;;;;;8.35;1.50;;;;;;;;;;4916319;29;20024;-61
2022/10/03 04:49:25;;;;;;;4.25;1.40;;;;;;;;;;4917447;29;20040;-61
2022/10/03 04:51:52;;;;;;;4.63;1.35;;;;;;;;;;4920154;29;20032;-61
2022/10/03 04:54:28;;;;;;;4.40;1.50;;;;;;;;;;4920021;29;20032;-62
2022/10/03 04:57:13;;;;;;;7.50;1.55;;;;;;;;;;4919987;29;20051;-61
2022/10/03 04:59:51;;;;;;;5.57;1.65;;;;;;;;;;4919985;29;20047;-61
2022/10/03 05:02:36;;;;;;;8.55;1.92;;;;;;;;;;4919837;29;20039;-61
2022/10/03 05:05:12;;;;;;;6.13;1.02;;;;;;;;;;4919824;29;20024;-62
2022/10/03 05:07:45;;;;;;;5.43;1.40;;;;;;;;;;4919840;29;20032;-61
2022/10/03 05:10:30;;;;;;;4.47;1.13;;;;;;;;;;4919834;29;20020;-61
2022/10/03 05:13:10;;;;;;;6.03;1.50;;;;;;;;;;4919612;29;20028;-61
2022/10/03 05:15:56;;;;;;;7.47;1.50;;;;;;;;;;4919519;29;20099;-61
2022/10/03 05:18:26;;;;;;;3.28;1.23;;;;;;;;;;4919540;29;20095;-61
2022/10/03 05:21:01;;;;;;;4.40;1.10;;;;;;;;;;4919594;29;20546;-61
2022/10/03 05:23:38;;;;;;;4.70;1.35;;;;;;;;;;4919724;29;20040;-61
2022/10/03 05:26:15;;;;;;;4.85;1.40;;;;;;;;;;4919314;29;20042;-61
2022/10/03 05:28:49;;;;;;;4.95;1.20;;;;;;;;;;4919475;29;20103;-61
2022/10/03 05:31:19;;;;;;;6.20;1.15;;;;;;;;;;4919408;29;20044;-61
2022/10/03 05:33:45;;;;;;;9.65;1.52;;;;;;;;;;4919046;29;20055;-61
2022/10/03 05:36:12;;;;;;;6.68;1.40;;;;;;;;;;4919169;29;20036;-59
2022/10/03 05:38:57;;;;;;;4.57;1.13;;;;;;;;;;4919212;29;20028;-60
2022/10/03 05:41:31;;;;;;;6.65;1.00;;;;;;;;;;4919246;29;20084;-60
2022/10/03 05:44:01;;;;;;;7.38;1.30;;;;;;;;;;4918969;29;20068;-59
2022/10/03 05:46:48;;;;;;;4.00;1.30;;;;;;;;;;4919033;29;20403;-60
2022/10/03 05:49:41;;;;;;;6.85;1.70;;;;;;;;;;4915512;29;20040;-60
2022/10/03 05:52:11;;;;;;;6.47;0.98;;;;;;;;;;4918959;29;20036;-59
2022/10/03 05:55:02;;;;;;;4.70;1.15;;;;;;;;;;4918905;29;20035;-59
2022/10/03 05:57:43;;;;;;;5.55;1.48;;;;;;;;;;4918866;29;20032;-59
2022/10/03 06:00:28;;;;;;;5.40;1.08;;;;;;;;;;4918482;29;20028;-59
2022/10/03 06:03:04;;;;;;;4.80;1.15;;;;;;;;;;4933469;29;20059;-60
2022/10/03 06:05:34;;;;;;;3.58;0.98;;;;;;;;;;4937747;29;20103;-59
2022/10/03 06:08:19;;;;;;;2.72;0.88;;;;;;;;;;4937749;29;20171;-59
2022/10/03 06:10:49;;;;;;;4.72;1.15;;;;;;;;;;4937696;29;20060;-60
2022/10/03 06:13:20;;;;;;;3.92;1.10;;;;;;;;;;4937643;29;20115;-59
2022/10/03 06:15:53;;;;;;;6.75;1.08;;;;;;;;;;4937532;29;20034;-59
2022/10/03 06:18:22;;;;;;;3.65;0.90;;;;;;;;;;4937469;29;20039;-59
2022/10/03 06:21:09;;;;;;;2.50;0.90;;;;;;;;;;4937499;29;20038;-59
2022/10/03 06:24:00;;;;;;;3.22;0.90;;;;;;;;;;4937209;29;20034;-59
2022/10/03 06:26:27;;;;;;;7.18;1.00;;;;;;;;;;4934762;29;20042;-59
2022/10/03 06:29:09;;;;;;;3.13;1.10;;;;;;;;;;4937520;29;20127;-60
2022/10/03 06:31:36;;;;;;;3.33;1.20;;;;;;;;;;4936987;29;20391;-59
2022/10/03 06:34:30;;;;;;;5.53;1.00;;;;;;;;;;4937093;29;20043;-59
2022/10/03 06:36:57;;;;;;;4.63;1.33;;;;;;;;;;4937128;29;20065;-59
2022/10/03 06:39:44;;;;;;;2.53;0.88;;;;;;;;;;4937173;29;20042;-59
2022/10/03 06:42:29;;;;;;;2.58;0.73;;;;;;;;;;4935878;29;20414;-59
2022/10/03 06:44:56;;;;;;;2.30;0.80;;;;;;;;;;4936935;29;20098;-60
2022/10/03 06:47:27;;;;;;;2.13;0.80;;;;;;;;;;4936996;29;20040;-60
2022/10/03 06:49:57;;;;;;;4.15;0.90;;;;;;;;;;4936955;29;20059;-61
2022/10/03 06:52:26;;;;;;;4.03;1.10;;;;;;;;;;4936939;29;20042;-61
2022/10/03 06:55:12;;;;;;;4.40;0.85;;;;;;;;;;4936766;29;20078;-61
2022/10/03 06:57:44;;;;;;;2.45;0.90;;;;;;;;;;4936721;29;20371;-60
2022/10/03 07:00:14;;;;;;;4.15;0.95;;;;;;;;;;4936777;29;20051;-60
2022/10/03 07:02:50;;;;;;;5.03;1.00;;;;;;;;;;4936794;29;20027;-59
2022/10/03 07:05:18;;;;;;;4.55;0.93;;;;;;;;;;4936620;29;20549;-58
2022/10/03 07:07:59;;;;;;;5.03;1.13;;;;;;;;;;4936930;29;20093;-59
2022/10/03 07:10:45;;;;;;;2.15;0.75;;;;;;;;;;4936472;29;20054;-60
2022/10/03 07:13:30;;;;;;;3.08;1.10;;;;;;;;;;4935816;29;20050;-60
2022/10/03 07:16:08;;;;;;;2.25;0.73;;;;;;;;;;4936404;29;20055;-59
2022/10/03 07:18:41;;;;;;;2.70;0.75;;;;;;;;;;4936372;29;20047;-60
2022/10/03 07:21:27;;;;;;;4.20;0.80;;;;;;;;;;4936445;29;20099;-60
2022/10/03 07:24:12;;;;;;;2.40;0.80;;;;;;;;;;4936213;29;20050;-59
2022/10/03 07:27:00;;;;;;;4.60;0.90;;;;;;;;;;4936296;29;20031;-60
2022/10/03 07:29:30;;;;;;;3.03;0.93;;;;;;;;;;4936263;29;20406;-60
2022/10/03 07:32:11;;;;;;;2.65;0.80;;;;;;;;;;4936123;29;20117;-60
2022/10/03 07:34:50;;;;;;;4.15;1.05;;;;;;;;;;4935997;29;20039;-60
2022/10/03 07:40:28;;;;;;;4.00;0.73;;;;;;;;;;4936371;29;20042;-59
2022/10/03 07:43:10;;;;;;;2.75;1.00;;;;;;;;;;4935985;29;20047;-59
2022/10/03 07:45:57;;;;;;;5.50;1.00;;;;;;;;;;4935867;29;20055;-59
2022/10/03 07:48:48;;;;;;;2.05;0.88;;;;;;;;;;4935827;29;20047;-60
2022/10/03 07:51:29;;;;;;;2.50;0.88;;;;;;;;;;4935896;29;20058;-60
2022/10/03 07:54:14;;;;;;;2.58;0.68;;;;;;;;;;4935805;29;20027;-59
2022/10/03 07:56:41;;;;;;;3.95;0.82;;;;;;;;;;4935820;29;20114;-60
2022/10/03 07:59:20;;;;;;;4.55;0.98;;;;;;;;;;4935694;29;20446;-60
2022/10/03 08:01:53;;;;;;;4.20;0.80;;;;;;;;;;4935753;29;20107;-60
2022/10/03 08:04:20;;;;;;;1.90;0.50;;;;;;;;;;4935645;29;20028;-60
2022/10/03 08:07:04;;;;;;;2.83;0.70;;;;;;;;;;4935686;29;20439;-60
2022/10/03 08:09:47;;;;;;;2.15;0.93;;;;;;;;;;4935631;29;20047;-60
2022/10/03 08:12:50;;;;;;;5.43;0.88;;;;;;;;;;4935638;29;20035;-60
2022/10/03 08:15:19;;;;;;;;;;;;;;;;;;4914696;29;20702;-60
2022/10/03 08:18:09;;;;;;;3.25;0.90;;;;;;;;;;4931590;29;20381;-60
2022/10/03 08:20:54;;;;;;;2.35;0.60;;;;;;;;;;4925662;29;20060;-60
2022/10/03 08:23:39;;;;;;;5.68;0.63;;;;;;;;;;4935488;29;20024;-60
2022/10/03 08:26:17;;;;;;;3.60;0.82;;;;;;;;;;4935383;29;20533;-60
2022/10/03 08:29:02;;;;;;;3.80;0.90;;;;;;;;;;4935438;29;20035;-60
2022/10/03 08:31:47;;;;;;;2.70;0.75;;;;;;;;;;4935449;29;20457;-60
2022/10/03 08:34:17;;;;;;;4.03;0.85;;;;;;;;;;4935278;29;20506;-60
2022/10/03 08:36:53;;;;;;;2.00;0.75;;;;;;;;;;4935386;29;20111;-60
2022/10/03 08:39:23;;;;;;;3.83;0.82;;;;;;;;;;4935404;29;20038;-60
2022/10/03 08:42:02;;;;;;;2.15;0.90;;;;;;;;;;4935358;29;20043;-60
2022/10/03 08:44:47;;;;;;;4.95;0.85;;;;;;;;;;4935103;29;20110;-60
2022/10/03 08:47:29;;;;;;;2.13;0.77;;;;;;;;;;4935265;29;20047;-60
2022/10/03 08:50:15;;;;;;;6.32;0.95;;;;;;;;;;4935278;29;20039;-60
2022/10/03 08:52:42;;;;;;;2.53;0.80;;;;;;;;;;4935200;29;20024;-59
2022/10/03 08:55:32;;;;;;;5.60;0.95;;;;;;;;;;4935145;29;20028;-60
2022/10/03 08:58:08;;;;;;;4.40;0.80;;;;;;;;;;4934962;29;20047;-60
2022/10/03 09:00:53;;;;;;;4.13;0.93;;;;;;;;;;4935195;29;20036;-60
2022/10/03 09:03:20;;;;;;;1.73;0.60;;;;;;;;;;4935203;29;20390;-60
2022/10/03 09:06:07;;;;;;;2.33;0.70;;;;;;;;;;4935030;29;20446;-60
2022/10/03 09:08:53;;;;;;;3.78;0.70;;;;;;;;;;4935380;29;20040;-60
2022/10/03 09:11:20;;;;;;;5.28;1.00;;;;;;;;;;4934975;29;20051;-60
2022/10/03 09:14:05;;;;;;;5.90;0.80;;;;;;;;;;4933638;29;20040;-59
2022/10/03 09:16:32;;;;;;;3.95;0.90;;;;;;;;;;4935082;29;20036;-60
2022/10/03 09:18:59;;;;;;;1.85;0.70;;;;;;;;;;4934906;29;20036;-60
2022/10/03 09:21:38;;;;;;;3.50;0.68;;;;;;;;;;4924480;29;20032;-61
2022/10/03 09:24:23;;;;;;;4.55;0.93;;;;;;;;;;4915879;29;20032;-61
2022/10/03 09:27:02;;;;;;;4.15;1.00;;;;;;;;;;4915988;29;20036;-61
2022/10/03 09:29:29;;;;;;;4.55;1.10;;;;;;;;;;4916014;29;20028;-61
2022/10/03 09:32:14;;;;;;;4.30;1.00;;;;;;;;;;4915514;29;20041;-61
2022/10/03 09:34:59;;;;;;;3.10;1.00;;;;;;;;;;4915795;29;20031;-61
2022/10/03 09:37:44;;;;;;;4.75;0.90;;;;;;;;;;4926417;29;20515;-61
2022/10/03 09:40:23;;;;;;;2.13;0.73;;;;;;;;;;4929317;29;20051;-61
2022/10/03 09:43:08;;;;;;;4.68;0.77;;;;;;;;;;4929064;29;20062;-60
2022/10/03 09:45:55;;;;;;;5.13;1.15;;;;;;;;;;4929091;29;20382;-59
2022/10/03 09:48:31;;;;;;;5.82;0.98;;;;;;;;;;4912256;29;20055;-61
2022/10/03 09:51:06;;;;;;;4.68;1.00;;;;;;;;;;4918841;29;20028;-61
2022/10/03 09:53:34;;;;;;;3.35;0.77;;;;;;;;;;4918933;29;20028;-62
2022/10/03 09:56:25;;;;;;;4.22;1.05;;;;;;;;;;4918888;29;20048;-61
2022/10/03 09:59:04;;;;;;;4.78;1.00;;;;;;;;;;4918908;29;20032;-61
2022/10/03 10:01:37;;;;;;;3.58;0.93;;;;;;;;;;4918970;29;20036;-61
2022/10/03 10:04:22;;;;;;;6.80;1.02;;;;;;;;;;4918681;29;20087;-61
2022/10/03 10:07:07;;;;;;;9.75;0.90;;;;;;;;;;4918861;29;20519;-61
2022/10/03 10:09:47;;;;;;;7.07;1.20;;;;;;;;;;4918807;29;20032;-61
2022/10/03 10:12:20;;;;;;;3.85;0.90;;;;;;;;;;4918715;29;20595;-61
2022/10/03 10:15:05;;;;;;;6.80;1.10;;;;;;;;;;4918597;29;20112;-61
2022/10/03 10:17:38;;;;;;;5.25;1.13;;;;;;;;;;4918547;29;20028;-60
2022/10/03 10:20:10;;;;;;;5.22;0.98;;;;;;;;;;4918631;29;20091;-61
2022/10/03 10:22:40;;;;;;;10.27;1.25;;;;;;;;;;4920701;29;20066;-60
2022/10/03 10:25:25;;;;;;;4.05;1.20;;;;;;;;;;4933634;29;20067;-59
2022/10/03 10:28:10;;;;;;;7.15;1.00;;;;;;;;;;4919176;29;20028;-59
2022/10/03 10:30:55;;;;;;;6.45;1.23;;;;;;;;;;4917977;29;20160;-61
2022/10/03 10:33:40;;;;;;;5.70;1.23;;;;;;;;;;4933533;29;20056;-60
2022/10/03 10:36:10;;;;;;;8.77;1.00;;;;;;;;;;4922457;29;20032;-61
2022/10/03 10:38:59;;;;;;;8.32;1.08;;;;;;;;;;4937144;29;20483;-61
2022/10/03 10:41:52;;;;;;;4.32;1.10;;;;;;;;;;4937109;29;20035;-61
2022/10/03 10:44:38;;;;;;;4.82;1.08;;;;;;;;;;4929749;29;20098;-60
2022/10/03 10:47:23;;;;;;;9.80;1.33;;;;;;;;;;4926303;29;20036;-61
2022/10/03 10:50:05;;;;;;;6.38;1.00;;;;;;;;;;4937095;29;20375;-61
2022/10/03 10:52:40;;;;;;;13.50;1.65;;;;;;;;;;4937002;29;20054;-61
2022/10/03 10:55:39;;;;;;;11.30;1.27;;;;;;;;;;4921726;29;20107;-61
2022/10/03 10:58:24;;;;;;;4.97;1.30;;;;;;;;;;4917633;29;20060;-59
2022/10/03 11:01:09;;;;;;;8.10;1.55;;;;;;;;;;4917780;29;20033;-59
2022/10/03 11:03:56;;;;;;;9.55;1.50;;;;;;;;;;4924889;29;20063;-59
2022/10/03 11:06:29;;;;;;;5.45;1.33;;;;;;;;;;4934989;29;20046;-60
2022/10/03 11:09:24;;;;;;;9.98;1.55;;;;;;;;;;4933478;29;20028;-60
2022/10/03 11:12:10;;;;;;;8.00;1.60;;;;;;;;;;4929378;29;20027;-60
2022/10/03 11:15:08;;;;;;;6.85;1.27;;;;;;;;;;4936459;29;20036;-60
2022/10/03 11:17:41;;;;;;;7.32;1.38;;;;;;;;;;4936400;29;20098;-60
2022/10/03 11:20:26;;;;;;;8.55;1.48;;;;;;;;;;4936453;29;20039;-60
2022/10/03 11:23:11;;;;;;;7.10;1.23;;;;;;;;;;4936421;29;20482;-60
2022/10/03 11:25:39;;;;;;;8.32;1.25;;;;;;;;;;4936296;29;20036;-60
2022/10/03 11:28:25;;;;;;;8.45;1.60;;;;;;;;;;4936296;29;20518;-60
2022/10/03 11:31:08;;;;;;;6.75;1.70;;;;;;;;;;4936284;29;20043;-60
2022/10/03 11:33:34;;;;;;;;;;;;;;;;;;4936362;29;20055;-60
2022/10/03 11:36:18;;;;;;;7.65;1.45;;;;;;;;;;4936178;29;20262;-60
2022/10/03 11:39:14;;;;;;;7.85;1.90;;;;;;;;;;4936051;29;20051;-58
2022/10/03 11:41:44;;;;;;;3.95;1.35;;;;;;;;;;4935621;29;20486;-60
2022/10/03 11:44:29;;;;;;;5.80;1.48;;;;;;;;;;4935993;29;20038;-60
2022/10/03 11:47:07;;;;;;;5.07;1.30;;;;;;;;;;4935990;29;20086;-60
2022/10/03 11:49:51;;;;;;;10.57;1.50;;;;;;;;;;4935983;29;20110;-60
2022/10/03 11:52:38;;;;;;;10.32;1.60;;;;;;;;;;4935981;29;20481;-59
2022/10/03 11:55:14;;;;;;;13.38;1.63;;;;;;;;;;4935744;29;20035;-60
2022/10/03 11:57:44;;;;;;;9.13;1.90;;;;;;;;;;4935502;29;20036;-60
2022/10/03 12:00:12;;;;;;;9.05;1.52;;;;;;;;;;4929322;29;20060;-60
2022/10/03 12:02:53;;;;;;;7.18;1.63;;;;;;;;;;4935175;29;20063;-60
2022/10/03 12:05:27;;;;;;;9.30;1.90;;;;;;;;;;4924078;29;20439;-59
2022/10/03 12:11:08;;;;;;;9.55;1.70;;;;;;;;;;4916477;29;20470;-59
2022/10/03 12:13:41;;;;;;;11.27;2.03;;;;;;;;;;4935147;28;20127;-60
2022/10/03 12:16:16;;;;;;;12.65;2.33;;;;;;;;;;4934726;29;20027;-60
2022/10/03 12:18:43;;;;;;;9.00;1.55;;;;;;;;;;4935014;29;20553;-60
2022/10/03 12:21:11;;;;;;;8.90;1.70;;;;;;;;;;4933467;29;20505;-62
2022/10/03 12:23:57;;;;;;;10.02;1.95;;;;;;;;;;4914887;29;20390;-62
2022/10/03 12:26:30;;;;;;;15.65;1.90;;;;;;;;;;4915280;29;20083;-62
2022/10/03 12:28:58;;;;;;;8.10;2.05;;;;;;;;;;4916397;29;20091;-62
2022/10/03 12:31:29;;;;;;;7.68;1.50;;;;;;;;;;4916441;29;20032;-62
2022/10/03 12:34:15;;;;;;;9.05;1.77;;;;;;;;;;4915628;29;20044;-61
2022/10/03 12:36:48;;;;;;;7.25;1.58;;;;;;;;;;4915379;29;20043;-62
2022/10/03 12:39:21;;;;;;;14.32;2.00;;;;;;;;;;4916215;29;20040;-62
2022/10/03 12:41:51;;;;;;;4.80;1.60;;;;;;;;;;4915859;29;20111;-63
2022/10/03 12:44:31;;;;;;;7.15;2.17;;;;;;;;;;4915633;29;20036;-60
2022/10/03 12:47:18;;;;;;;5.07;1.90;;;;;;;;;;4915181;29;20036;-63
2022/10/03 12:50:03;;;;;;;13.10;2.03;;;;;;;;;;4905127;29;20036;-63
2022/10/03 12:52:35;;;;;;;10.55;1.58;;;;;;;;;;4916839;29;20055;-62
2022/10/03 12:55:12;;;;;;;9.23;2.20;;;;;;;;;;4934106;29;20028;-61
2022/10/03 12:57:51;;;;;;;9.75;2.13;;;;;;;;;;4933838;29;20028;-62
2022/10/03 13:00:31;;;;;;;7.90;2.05;;;;;;;;;;4934722;29;20056;-61
2022/10/03 13:03:01;;;;;;;7.10;1.90;;;;;;;;;;4934750;29;20040;-63
2022/10/03 13:05:37;;;;;;;5.40;1.40;;;;;;;;;;4934296;29;20490;-64
2022/10/03 13:08:11;;;;;;;8.93;1.85;;;;;;;;;;4934253;29;20082;-62
2022/10/03 13:10:49;;;;;;;8.55;2.13;;;;;;;;;;4936208;29;20040;-61
2022/10/03 13:13:22;;;;;;;10.02;2.22;;;;;;;;;;4938656;29;20068;-61
2022/10/03 13:15:55;;;;;;;14.57;1.88;;;;;;;;;;4937935;29;20034;-63
2022/10/03 13:18:22;;;;;;;19.95;2.45;;;;;;;;;;4937643;29;20118;-63
2022/10/03 13:21:09;;;;;;;8.77;2.22;;;;;;;;;;4938506;29;20075;-61
2022/10/03 13:23:36;;;;;;;13.20;2.00;;;;;;;;;;4936959;29;20415;-61
2022/10/03 13:26:32;;;;;;;14.35;2.53;;;;;;;;;;4937713;29;20032;-62
2022/10/03 13:29:18;;;;;;;15.13;2.97;;;;;;;;;;4935245;29;20036;-62
2022/10/03 13:31:56;;;;;;;14.23;2.50;;;;;;;;;;4938139;29;20490;-63
2022/10/03 13:34:32;;;;;;;11.50;2.00;;;;;;;;;;4938154;29;20534;-64
2022/10/03 13:37:25;;;;;;;13.55;1.95;;;;;;;;;;4937845;29;20035;-62
2022/10/03 13:39:54;;;;;;;21.40;2.25;;;;;;;;;;4936185;29;20059;-62
2022/10/03 13:42:30;;;;;;;17.60;2.35;;;;;;;;;;4938165;29;20087;-60
2022/10/03 13:45:03;;;;;;;16.95;2.28;;;;;;;;;;4937327;29;20036;-60
2022/10/03 13:47:35;;;;;;;14.73;2.47;;;;;;;;;;4937992;29;20031;-61
2022/10/03 13:50:09;;;;;;;11.85;2.45;;;;;;;;;;4937065;29;20059;-62
2022/10/03 13:52:39;;;;;;;11.10;2.03;;;;;;;;;;4937405;29;20036;-62
2022/10/03 13:55:09;;;;;;;8.70;2.17;;;;;;;;;;4936467;29;20378;-62
2022/10/03 13:57:39;;;;;;;15.02;2.78;;;;;;;;;;4934707;29;20142;-63
2022/10/03 14:00:11;;;;;;;15.90;3.33;;;;;;;;;;4936479;29;20549;-63
2022/10/03 14:02:43;;;;;;;43.08;4.03;;;;;;;;;;4937369;29;20394;-61
2022/10/03 14:05:13;;;;;;;22.33;3.13;;;;;;;;;;4933310;29;20550;-60
2022/10/03 14:07:40;;;;;;;19.38;2.88;;;;;;;;;;4937652;29;20390;-61
2022/10/03 14:10:17;;;;;;;53.83;5.13;;;;;;;;;;4936426;29;20039;-61
2022/10/03 14:12:47;;;;;;;34.55;4.18;;;;;;;;;;4937746;29;20047;-61
2022/10/03 14:15:26;;;;;;;38.15;3.80;;;;;;;;;;4936158;29;20055;-61
2022/10/03 14:18:08;;;;;;;28.27;3.90;;;;;;;;;;4934761;29;20128;-62
2022/10/03 14:20:35;;;;;;;21.20;3.60;;;;;;;;;;4923908;29;20028;-61
2022/10/03 14:23:04;;;;;;;25.35;3.95;;;;;;;;;;4918057;29;20099;-62
2022/10/03 14:25:37;;;;;;;26.63;3.95;;;;;;;;;;4917453;29;20039;-61
2022/10/03 14:28:30;;;;;;;38.28;3.78;;;;;;;;;;4917039;29;20511;-61
2022/10/03 14:31:17;;;;;;;23.52;3.42;;;;;;;;;;4916443;29;20078;-60
2022/10/03 14:34:06;;;;;;;52.65;4.43;;;;;;;;;;4917333;29;20048;-61
2022/10/03 14:36:33;;;;;;;26.20;4.00;;;;;;;;;;4917196;29;20530;-63
2022/10/03 14:39:01;;;;;;;26.40;3.70;;;;;;;;;;4917207;29;20127;-64
2022/10/03 14:41:45;;;;;;;23.55;3.60;;;;;;;;;;4918128;29;20526;-64
2022/10/03 14:44:25;;;;;;;26.88;3.40;;;;;;;;;;4917128;29;20040;-62
2022/10/03 14:46:59;;;;;;;22.02;3.78;;;;;;;;;;4917010;29;20134;-64
2022/10/03 14:49:30;;;;;;;22.73;4.10;;;;;;;;;;4918030;29;20037;-64
2022/10/03 14:52:03;;;;;;;33.55;4.95;;;;;;;;;;4917631;29;20391;-63
2022/10/03 14:54:36;;;;;;;30.33;4.57;;;;;;;;;;4916685;29;20040;-67
2022/10/03 14:57:23;;;;;;;23.60;4.25;;;;;;;;;;4917538;29;20032;-63
2022/10/03 14:59:53;;;;;;;28.65;4.60;;;;;;;;;;4916336;29;20147;-63
2022/10/03 15:02:31;;;;;;;35.28;5.82;;;;;;;;;;4917609;29;20112;-62
2022/10/03 15:05:37;;;;;;;36.53;5.55;;;;;;;;;;4925785;29;20050;-60
2022/10/03 15:08:11;;;;;;;42.03;5.68;;;;;;;;;;4896523;29;20107;-60
2022/10/03 15:10:39;;;;;;;52.50;6.55;;;;;;;;;;4896164;29;20051;-62
2022/10/03 15:13:10;;;;;;;37.60;5.82;;;;;;;;;;4907179;29;20052;-63
2022/10/03 15:15:40;;;;;;;42.63;6.57;;;;;;;;;;4915414;29;20083;-62
2022/10/03 15:18:13;;;;;;;40.58;5.75;;;;;;;;;;4917042;29;20032;-61
2022/10/03 15:20:41;;;;;;;51.85;6.82;;;;;;;;;;4921577;29;20032;-59
2022/10/03 15:23:18;;;;;;;71.07;8.35;;;;;;;;;;4918216;29;20186;-61
2022/10/03 15:25:52;;;;;;;50.70;9.77;;;;;;;;;;4920752;29;20023;-59
2022/10/03 15:28:21;;;;;;;92.47;16.48;;;;;;;;;;4935898;29;20036;-59
2022/10/03 15:30:49;;;;;;;147.05;34.95;;;;;;;;;;4924172;29;20127;-61
2022/10/03 15:33:29;;;;;;;159.30;44.28;;;;;;;;;;4920160;29;20048;-59
2022/10/03 15:36:01;;;;;;;172.13;54.25;;;;;;;;;;4934342;29;20445;-59
2022/10/03 15:38:54;;;;;;;191.00;56.17;;;;;;;;;;4935288;29;20406;-61
2022/10/03 15:41:29;;;;;;;173.48;56.63;;;;;;;;;;4919923;29;20044;-63
2022/10/03 15:44:05;;;;;;;177.18;55.05;;;;;;;;;;4920918;29;20042;-61
2022/10/03 15:46:35;;;;;;;103.18;29.55;;;;;;;;;;4922071;29;20512;-61
2022/10/03 15:49:05;;;;;;;100.63;28.08;;;;;;;;;;4929378;29;20040;-63
2022/10/03 15:51:35;;;;;;;117.15;31.67;;;;;;;;;;4919497;29;20114;-66
2022/10/03 15:54:03;;;;;;;102.32;30.55;;;;;;;;;;4929396;29;20043;-62
2022/10/03 15:56:38;;;;;;;94.03;27.50;;;;;;;;;;4945217;29;20032;-62